createdAt,value
2022-12-01T00:01:55.337Z,10.25
2022-12-01T00:04:21.632Z,10.40
2022-12-01T00:06:48.926Z,9.77
2022-12-01T00:09:19.429Z,10.20
2022-12-01T00:11:46.037Z,10.87
2022-12-01T00:14:12.260Z,10.82
2022-12-01T00:16:38.566Z,9.23
2022-12-01T00:19:04.735Z,10.60
2022-12-01T00:21:30.856Z,10.15
2022-12-01T00:23:57.039Z,11.88
2022-12-01T00:26:23.318Z,10.38
2022-12-01T00:28:49.477Z,10.88
2022-12-01T00:31:15.701Z,11.52
2022-12-01T00:33:42.216Z,10.82
2022-12-01T00:36:08.411Z,10.13
2022-12-01T00:38:34.620Z,9.98
2022-12-01T00:41:00.821Z,10.95
2022-12-01T00:43:26.985Z,10.25
2022-12-01T00:45:53.238Z,10.27
2022-12-01T00:48:19.511Z,12.30
2022-12-01T00:50:45.719Z,11.57
2022-12-01T00:53:12.958Z,11.32
2022-12-01T00:55:39.163Z,10.98
2022-12-01T00:58:05.391Z,12.60
2022-12-01T01:00:31.622Z,10.88
2022-12-01T01:02:57.894Z,11.48
2022-12-01T01:05:24.153Z,11.57
2022-12-01T01:07:50.406Z,11.98
2022-12-01T01:10:16.632Z,11.65
2022-12-01T01:12:42.878Z,12.02
2022-12-01T01:15:09.207Z,11.48
2022-12-01T01:17:35.331Z,11.80
2022-12-01T01:20:01.555Z,10.73
2022-12-01T01:22:27.713Z,11.15
2022-12-01T01:24:54.085Z,11.43
2022-12-01T01:27:20.314Z,11.90
2022-12-01T01:29:46.830Z,12.10
2022-12-01T01:32:13.226Z,12.60
2022-12-01T01:34:39.437Z,12.10
2022-12-01T01:37:05.599Z,13.00
2022-12-01T01:39:31.984Z,11.75
2022-12-01T01:41:58.181Z,12.45
2022-12-01T01:44:24.588Z,11.02
2022-12-01T01:46:50.815Z,13.13
2022-12-01T01:49:17.002Z,13.25
2022-12-01T01:51:45.602Z,12.60
2022-12-01T01:54:11.812Z,12.30
2022-12-01T01:56:37.969Z,12.88
2022-12-01T01:59:04.236Z,11.70
2022-12-01T02:01:30.468Z,12.82
2022-12-01T02:03:56.659Z,13.35
2022-12-01T02:06:23.010Z,13.38
2022-12-01T02:08:49.373Z,11.25
2022-12-01T02:11:15.692Z,11.63
2022-12-01T02:13:41.871Z,12.40
2022-12-01T02:16:08.118Z,12.50
2022-12-01T02:18:34.627Z,12.57
2022-12-01T02:21:00.872Z,11.88
2022-12-01T02:23:27.363Z,14.27
2022-12-01T02:25:53.588Z,12.85
2022-12-01T02:28:23.105Z,11.63
2022-12-01T02:30:49.498Z,11.18
2022-12-01T02:33:15.728Z,10.20
2022-12-01T02:35:41.948Z,11.95
2022-12-01T02:38:08.138Z,12.65
2022-12-01T02:40:34.456Z,10.73
2022-12-01T02:43:00.931Z,11.63
2022-12-01T02:45:27.163Z,11.38
2022-12-01T02:47:53.521Z,11.88
2022-12-01T02:50:19.967Z,11.00
2022-12-01T02:52:46.192Z,11.18
2022-12-01T02:55:12.647Z,11.05
2022-12-01T02:57:38.996Z,12.13
2022-12-01T03:00:05.341Z,10.98
2022-12-01T03:02:31.785Z,11.57
2022-12-01T03:05:00.825Z,10.93
2022-12-01T03:07:27.338Z,10.25
2022-12-01T03:09:53.590Z,10.80
2022-12-01T03:12:19.781Z,9.02
2022-12-01T03:14:45.985Z,9.93
2022-12-01T03:17:12.113Z,12.20
2022-12-01T03:19:38.274Z,11.05
2022-12-01T03:22:04.430Z,8.20
2022-12-01T03:24:30.556Z,8.68
2022-12-01T03:26:56.721Z,7.68
2022-12-01T03:29:22.878Z,9.55
2022-12-01T03:31:49.139Z,11.25
2022-12-01T03:39:40.742Z,8.57
2022-12-01T03:42:06.912Z,8.52
2022-12-01T03:44:33.110Z,8.50
2022-12-01T03:46:59.290Z,8.02
2022-12-01T03:49:25.475Z,6.53
2022-12-01T03:51:51.586Z,7.25
2022-12-01T03:54:17.716Z,6.82
2022-12-01T03:56:43.872Z,7.93
2022-12-01T03:59:10.027Z,7.47
2022-12-01T04:01:36.241Z,6.25
2022-12-01T04:04:02.409Z,7.78
2022-12-01T04:06:28.586Z,7.97
2022-12-01T04:08:54.744Z,7.03
2022-12-01T04:11:20.859Z,6.78
2022-12-01T04:13:47.076Z,6.32
2022-12-01T04:16:13.351Z,7.90
2022-12-01T04:18:39.519Z,7.18
2022-12-01T04:21:05.634Z,4.32
2022-12-01T04:23:31.815Z,7.50
2022-12-01T04:25:57.996Z,6.90
2022-12-01T04:28:24.196Z,7.68
2022-12-01T04:30:50.319Z,7.07
2022-12-01T04:33:16.516Z,6.25
2022-12-01T04:35:42.649Z,7.18
2022-12-01T04:38:08.793Z,7.93
2022-12-01T04:40:34.946Z,5.13
2022-12-01T04:43:01.130Z,6.90
2022-12-01T04:45:27.255Z,7.50
2022-12-01T04:47:53.416Z,6.57
2022-12-01T04:50:19.557Z,7.68
2022-12-01T04:52:45.709Z,5.85
2022-12-01T04:55:11.876Z,7.45
2022-12-01T04:57:38.015Z,6.88
2022-12-01T05:00:04.183Z,6.97
2022-12-01T05:02:30.392Z,7.15
2022-12-01T05:04:56.662Z,7.32
2022-12-01T05:07:22.861Z,6.78
2022-12-01T05:09:49.227Z,7.13
2022-12-01T05:12:15.650Z,6.75
2022-12-01T05:14:41.866Z,7.35
2022-12-01T05:17:08.027Z,7.60
2022-12-01T05:19:34.170Z,7.50
2022-12-01T05:22:00.320Z,9.55
2022-12-01T05:24:26.481Z,6.20
2022-12-01T05:26:52.630Z,7.43
2022-12-01T05:29:18.741Z,6.88
2022-12-01T05:31:45.006Z,6.30
2022-12-01T05:34:11.193Z,6.90
2022-12-01T05:36:37.334Z,7.68
2022-12-01T05:39:03.491Z,8.32
2022-12-01T05:41:29.653Z,7.07
2022-12-01T05:43:55.840Z,7.00
2022-12-01T05:46:22.136Z,8.35
2022-12-01T05:48:48.376Z,7.03
2022-12-01T05:51:14.478Z,7.55
2022-12-01T05:53:40.607Z,7.72
2022-12-01T05:56:06.758Z,8.50
2022-12-01T05:58:32.913Z,6.53
2022-12-01T06:00:59.059Z,8.30
2022-12-01T06:03:25.172Z,7.70
2022-12-01T06:05:51.288Z,8.70
2022-12-01T06:08:20.228Z,8.02
2022-12-01T06:10:46.410Z,8.50
2022-12-01T06:13:12.601Z,7.25
2022-12-01T06:15:38.794Z,6.63
2022-12-01T06:18:04.956Z,8.25
2022-12-01T06:20:31.113Z,6.10
2022-12-01T06:22:57.237Z,7.97
2022-12-01T06:25:23.404Z,9.77
2022-12-01T06:27:49.511Z,6.55
2022-12-01T06:30:15.692Z,8.32
2022-12-01T06:32:41.829Z,6.85
2022-12-01T06:35:07.988Z,8.55
2022-12-01T06:37:34.183Z,8.18
2022-12-01T06:40:00.302Z,8.15
2022-12-01T06:42:26.476Z,7.78
2022-12-01T06:44:52.626Z,8.18
2022-12-01T06:47:18.784Z,8.80
2022-12-01T06:49:44.980Z,7.13
2022-12-01T06:52:11.149Z,8.63
2022-12-01T06:54:37.341Z,8.75
2022-12-01T06:57:03.516Z,8.18
2022-12-01T06:59:30.029Z,7.57
2022-12-01T07:01:56.675Z,8.15
2022-12-01T07:04:22.894Z,8.15
2022-12-01T07:06:49.114Z,8.32
2022-12-01T07:09:15.333Z,6.15
2022-12-01T07:11:41.658Z,8.55
2022-12-01T07:14:07.824Z,9.45
2022-12-01T07:16:34.052Z,8.50
2022-12-01T07:19:00.273Z,8.95
2022-12-01T07:21:26.500Z,8.80
2022-12-01T07:23:52.629Z,8.23
2022-12-01T07:26:18.754Z,9.38
2022-12-01T07:28:44.940Z,9.55
2022-12-01T07:31:11.192Z,8.48
2022-12-01T07:33:37.445Z,8.20
2022-12-01T07:36:03.562Z,8.32
2022-12-01T07:38:29.782Z,8.55
2022-12-01T07:40:55.934Z,8.52
2022-12-01T07:43:22.122Z,10.00
2022-12-01T07:45:48.360Z,9.05
2022-12-01T07:48:14.505Z,8.30
2022-12-01T07:50:40.679Z,8.68
2022-12-01T07:53:06.878Z,9.40
2022-12-01T07:55:33.057Z,9.00
2022-12-01T07:57:59.219Z,9.63
2022-12-01T08:00:25.364Z,10.27
2022-12-01T08:02:51.627Z,9.25
2022-12-01T08:05:17.821Z,8.25
2022-12-01T08:07:44.045Z,8.65
2022-12-01T08:10:10.274Z,9.75
2022-12-01T08:12:36.391Z,8.25
2022-12-01T08:15:02.537Z,9.25
2022-12-01T08:17:28.752Z,8.80
2022-12-01T08:19:55.045Z,8.18
2022-12-01T08:22:21.542Z,9.77
2022-12-01T08:24:47.742Z,8.25
2022-12-01T08:27:13.864Z,7.22
2022-12-01T08:29:40.002Z,9.10
2022-12-01T08:32:06.142Z,8.52
2022-12-01T08:34:32.337Z,8.13
2022-12-01T08:36:58.533Z,8.55
2022-12-01T08:39:24.706Z,7.90
2022-12-01T08:41:50.824Z,9.63
2022-12-01T08:44:17.217Z,8.55
2022-12-01T08:46:43.454Z,9.57
2022-12-01T08:49:09.697Z,8.88
2022-12-01T08:51:35.821Z,8.27
2022-12-01T08:54:01.985Z,9.43
2022-12-01T08:56:28.125Z,9.40
2022-12-01T08:58:54.255Z,9.73
2022-12-01T09:01:20.475Z,10.00
2022-12-01T09:03:46.746Z,8.63
2022-12-01T09:06:12.892Z,8.45
2022-12-01T09:08:39.063Z,9.07
2022-12-01T09:11:05.227Z,9.65
2022-12-01T09:13:33.578Z,8.75
2022-12-01T09:15:59.765Z,8.70
2022-12-01T09:18:26.002Z,9.38
2022-12-01T09:20:52.174Z,7.80
2022-12-01T09:23:18.323Z,9.07
2022-12-01T09:25:44.459Z,8.10
2022-12-01T09:28:10.660Z,9.10
2022-12-01T09:30:36.834Z,10.57
2022-12-01T09:33:03.027Z,8.63
2022-12-01T09:35:29.232Z,9.63
2022-12-01T09:37:56.797Z,8.45
2022-12-01T09:40:22.963Z,8.68
2022-12-01T09:42:49.127Z,8.93
2022-12-01T09:45:15.298Z,9.77
2022-12-01T09:47:41.628Z,9.38
2022-12-01T09:50:07.794Z,8.98
2022-12-01T09:52:33.922Z,8.90
2022-12-01T09:55:00.112Z,10.18
2022-12-01T09:57:26.347Z,7.35
2022-12-01T09:59:52.560Z,9.85
2022-12-01T10:02:18.804Z,9.43
2022-12-01T10:04:45.025Z,9.85
2022-12-01T10:07:11.280Z,9.13
2022-12-01T10:09:37.423Z,6.78
2022-12-01T10:12:03.636Z,9.77
2022-12-01T10:14:29.918Z,8.00
2022-12-01T10:16:56.051Z,8.65
2022-12-01T10:19:22.235Z,9.18
2022-12-01T10:21:48.378Z,7.80
2022-12-01T10:24:14.500Z,9.70
2022-12-01T10:26:40.673Z,8.57
2022-12-01T10:29:06.806Z,9.60
2022-12-01T10:31:32.990Z,9.85
2022-12-01T10:33:59.148Z,9.38
2022-12-01T10:36:25.275Z,9.05
2022-12-01T10:38:51.496Z,9.50
2022-12-01T10:41:17.624Z,9.00
2022-12-01T10:43:43.775Z,8.55
2022-12-01T10:46:10.021Z,8.57
2022-12-01T10:48:36.207Z,9.38
2022-12-01T10:51:02.419Z,9.23
2022-12-01T10:53:28.562Z,8.15
2022-12-01T10:55:54.749Z,9.05
2022-12-01T10:58:20.875Z,9.90
2022-12-01T11:01:02.632Z,9.13
2022-12-01T11:03:29.154Z,9.52
2022-12-01T11:05:55.519Z,8.05
2022-12-01T11:08:21.682Z,7.60
2022-12-01T11:10:47.843Z,8.90
2022-12-01T11:13:14.068Z,9.48
2022-12-01T11:15:40.196Z,9.57
2022-12-01T11:18:06.394Z,8.65
2022-12-01T11:20:32.691Z,9.27
2022-12-01T11:22:58.958Z,8.65
2022-12-01T11:25:25.110Z,9.90
2022-12-01T11:27:51.265Z,9.23
2022-12-01T11:30:17.481Z,7.50
2022-12-01T11:32:43.628Z,6.78
2022-12-01T11:35:09.837Z,8.27
2022-12-01T11:37:35.979Z,8.25
2022-12-01T11:40:02.112Z,7.47
2022-12-01T11:42:28.287Z,7.18
2022-12-01T11:44:54.466Z,8.77
2022-12-01T11:47:24.109Z,7.57
2022-12-01T11:49:50.823Z,8.88
2022-12-01T11:52:17.118Z,7.10
2022-12-01T11:54:43.558Z,9.57
2022-12-01T11:57:33.286Z,7.95
2022-12-01T11:59:55.967Z,8.07
2022-12-01T12:02:22.181Z,8.07
2022-12-01T12:04:48.391Z,8.10
2022-12-01T12:07:14.543Z,7.72
2022-12-01T12:09:46.023Z,7.28
2022-12-01T12:12:12.179Z,7.68
2022-12-01T12:14:38.388Z,8.25
2022-12-01T12:17:04.564Z,8.23
2022-12-01T12:19:34.360Z,7.75
2022-12-01T12:22:11.559Z,8.20
2022-12-01T12:24:37.712Z,8.30
2022-12-01T12:27:03.848Z,7.60
2022-12-01T12:29:30.037Z,8.20
2022-12-01T12:31:56.260Z,8.38
2022-12-01T12:34:22.498Z,8.38
2022-12-01T12:36:48.694Z,9.13
2022-12-01T12:39:16.806Z,9.60
2022-12-01T12:41:43.338Z,8.82
2022-12-01T12:44:09.482Z,8.98
2022-12-01T12:46:35.823Z,7.72
2022-12-01T12:51:48.168Z,7.90
2022-12-01T12:54:14.445Z,8.63
2022-12-01T12:56:40.593Z,8.43
2022-12-01T12:59:06.731Z,8.13
2022-12-01T13:01:33.021Z,8.82
2022-12-01T13:03:59.259Z,8.25
2022-12-01T13:06:25.434Z,9.70
2022-12-01T13:08:51.646Z,8.75
2022-12-01T13:11:17.870Z,8.00
2022-12-01T13:13:44.048Z,9.35
2022-12-01T13:16:10.290Z,8.88
2022-12-01T13:18:36.576Z,8.07
2022-12-01T13:21:02.868Z,8.35
2022-12-01T13:23:29.061Z,8.02
2022-12-01T13:25:55.247Z,9.02
2022-12-01T13:28:21.444Z,8.95
2022-12-01T13:30:47.639Z,9.77
2022-12-01T13:33:13.804Z,9.00
2022-12-01T13:35:39.967Z,9.45
2022-12-01T13:38:06.143Z,9.73
2022-12-01T13:40:32.271Z,9.10
2022-12-01T13:42:58.435Z,9.38
2022-12-01T13:45:24.641Z,9.60
2022-12-01T13:47:50.790Z,9.00
2022-12-01T13:50:16.951Z,7.95
2022-12-01T13:52:43.114Z,8.35
2022-12-01T13:55:09.254Z,7.82
2022-12-01T13:57:35.485Z,8.55
2022-12-01T14:00:01.647Z,8.90
2022-12-01T14:02:27.953Z,10.02
2022-12-01T14:04:54.250Z,9.77
2022-12-01T14:07:20.527Z,7.78
2022-12-01T14:09:46.743Z,9.20
2022-12-01T14:12:12.951Z,8.18
2022-12-01T14:14:39.085Z,8.40
2022-12-01T14:17:05.272Z,8.30
2022-12-01T14:19:31.499Z,8.57
2022-12-01T14:21:57.709Z,8.25
2022-12-01T14:24:23.917Z,8.27
2022-12-01T14:26:50.114Z,8.25
2022-12-01T14:29:16.314Z,8.65
2022-12-01T14:31:42.457Z,9.00
2022-12-01T14:34:08.694Z,9.27
2022-12-01T14:36:34.863Z,8.75
2022-12-01T14:39:01.032Z,8.43
2022-12-01T14:41:27.188Z,9.50
2022-12-01T14:43:53.376Z,9.75
2022-12-01T14:46:19.657Z,9.63
2022-12-01T14:48:45.811Z,10.38
2022-12-01T14:51:11.998Z,10.10
2022-12-01T14:53:38.130Z,9.57
2022-12-01T14:56:04.331Z,10.20
2022-12-01T14:58:30.509Z,9.05
2022-12-01T15:00:56.771Z,10.40
2022-12-01T15:03:26.430Z,10.98
2022-12-01T15:05:55.223Z,10.30
2022-12-01T15:11:11.074Z,8.27
2022-12-01T15:13:37.522Z,8.63
2022-12-01T15:16:03.795Z,8.38
2022-12-01T15:18:30.047Z,8.18
2022-12-01T15:20:56.223Z,9.13
2022-12-01T15:23:22.388Z,8.98
2022-12-01T15:25:48.548Z,9.65
2022-12-01T15:28:14.717Z,9.07
2022-12-01T15:30:40.908Z,7.82
2022-12-01T15:33:07.111Z,8.48
2022-12-01T15:35:33.296Z,8.82
2022-12-01T15:37:59.509Z,9.15
2022-12-01T15:41:06.180Z,9.70
2022-12-01T15:43:11.791Z,8.75
2022-12-01T15:45:37.998Z,9.27
2022-12-01T15:48:04.256Z,9.93
2022-12-01T15:50:30.404Z,9.07
2022-12-01T15:52:56.528Z,9.85
2022-12-01T15:55:22.687Z,9.25
2022-12-01T15:57:48.846Z,8.38
2022-12-01T16:00:15.018Z,9.25
2022-12-01T16:02:41.251Z,9.52
2022-12-01T16:05:07.519Z,9.52
2022-12-01T16:08:04.528Z,10.13
2022-12-01T16:10:19.860Z,9.52
2022-12-01T16:12:46.080Z,9.38
2022-12-01T16:15:12.265Z,8.32
2022-12-01T16:17:38.445Z,9.27
2022-12-01T16:20:04.616Z,8.73
2022-12-01T16:22:30.771Z,9.77
2022-12-01T16:24:56.932Z,9.63
2022-12-01T16:27:23.107Z,9.25
2022-12-01T16:29:49.342Z,9.40
2022-12-01T16:32:22.649Z,9.65
2022-12-01T16:34:48.850Z,8.23
2022-12-01T16:37:15.036Z,7.65
2022-12-01T16:39:41.234Z,8.93
2022-12-01T16:42:07.495Z,9.63
2022-12-01T16:44:33.733Z,8.70
2022-12-01T16:46:59.949Z,8.77
2022-12-01T16:49:26.095Z,9.80
2022-12-01T16:51:56.893Z,9.27
2022-12-01T16:54:23.548Z,8.18
2022-12-01T16:56:49.699Z,8.70
2022-12-01T16:59:15.913Z,8.23
2022-12-01T17:01:42.156Z,10.05
2022-12-01T17:04:08.374Z,10.43
2022-12-01T17:06:34.588Z,10.38
2022-12-01T17:09:00.757Z,10.18
2022-12-01T17:11:26.970Z,9.35
2022-12-01T17:13:54.146Z,8.68
2022-12-01T17:16:20.381Z,9.40
2022-12-01T17:18:46.597Z,10.80
2022-12-01T17:21:12.790Z,10.48
2022-12-01T17:23:38.950Z,9.38
2022-12-01T17:26:05.157Z,10.50
2022-12-01T17:28:31.320Z,9.02
2022-12-01T17:30:57.543Z,10.27
2022-12-01T17:33:23.750Z,9.68
2022-12-01T17:35:49.895Z,9.85
2022-12-01T17:38:16.034Z,9.68
2022-12-01T17:40:42.209Z,10.10
2022-12-01T17:43:08.417Z,11.00
2022-12-01T17:45:34.629Z,10.75
2022-12-01T17:48:00.786Z,12.73
2022-12-01T17:50:26.990Z,17.30
2022-12-01T17:52:53.225Z,10.48
2022-12-01T17:55:19.342Z,9.00
2022-12-01T17:57:45.475Z,11.68
2022-12-01T18:00:11.676Z,10.43
2022-12-01T18:02:37.878Z,13.35
2022-12-01T18:05:04.121Z,17.80
2022-12-01T18:07:30.441Z,11.80
2022-12-01T18:09:56.665Z,56.70
2022-12-01T18:12:22.839Z,18.42
2022-12-01T18:14:49.329Z,13.57
2022-12-01T18:17:15.636Z,18.80
2022-12-01T18:19:41.794Z,13.15
2022-12-01T18:22:08.015Z,12.73
2022-12-01T18:24:34.180Z,13.77
2022-12-01T18:27:00.386Z,12.68
2022-12-01T18:29:26.591Z,13.05
2022-12-01T18:31:52.811Z,12.90
2022-12-01T18:34:22.030Z,12.55
2022-12-01T18:36:48.265Z,13.73
2022-12-01T18:39:14.469Z,12.95
2022-12-01T18:41:40.649Z,13.38
2022-12-01T18:44:06.807Z,12.50
2022-12-01T18:46:33.021Z,14.27
2022-12-01T18:48:59.245Z,13.73
2022-12-01T18:51:25.491Z,12.20
2022-12-01T18:53:52.835Z,11.73
2022-12-01T18:56:19.893Z,12.75
2022-12-01T18:58:46.183Z,11.18
2022-12-01T19:01:12.400Z,12.93
2022-12-01T19:03:38.701Z,11.52
2022-12-01T19:06:04.897Z,13.05
2022-12-01T19:08:31.052Z,12.18
2022-12-01T19:10:57.249Z,12.15
2022-12-01T19:13:23.850Z,13.13
2022-12-01T19:15:50.093Z,11.93
2022-12-01T19:18:16.322Z,12.07
2022-12-01T19:20:42.539Z,11.63
2022-12-01T19:23:08.694Z,11.63
2022-12-01T19:25:34.934Z,16.88
2022-12-01T19:28:01.098Z,11.32
2022-12-01T19:30:27.319Z,10.63
2022-12-01T19:32:53.522Z,12.95
2022-12-01T19:35:19.709Z,11.82
2022-12-01T19:37:45.873Z,9.15
2022-12-01T19:40:12.093Z,12.43
2022-12-01T19:42:38.281Z,12.85
2022-12-01T19:45:04.503Z,12.13
2022-12-01T19:47:30.665Z,13.05
2022-12-01T19:49:56.883Z,13.43
2022-12-01T19:52:23.122Z,13.93
2022-12-01T19:54:49.737Z,13.02
2022-12-01T19:57:16.187Z,13.57
2022-12-01T19:59:42.407Z,15.27
2022-12-01T20:02:08.650Z,14.30
2022-12-01T20:04:34.922Z,15.13
2022-12-01T20:07:01.163Z,14.45
2022-12-01T20:09:27.354Z,9.98
2022-12-01T20:11:53.486Z,12.65
2022-12-01T20:14:19.637Z,13.82
2022-12-01T20:16:45.846Z,13.63
2022-12-01T20:19:12.081Z,12.38
2022-12-01T20:21:38.283Z,15.75
2022-12-01T20:24:04.450Z,13.82
2022-12-01T20:26:31.051Z,14.73
2022-12-01T20:28:57.270Z,14.90
2022-12-01T20:31:23.491Z,14.52
2022-12-01T20:33:49.767Z,14.75
2022-12-01T20:36:15.967Z,17.10
2022-12-01T20:38:42.135Z,15.02
2022-12-01T20:41:08.327Z,14.40
2022-12-01T20:43:34.502Z,12.35
2022-12-01T20:46:00.728Z,13.75
2022-12-01T20:48:27.000Z,14.85
2022-12-01T20:50:53.156Z,12.98
2022-12-01T20:53:19.334Z,15.43
2022-12-01T20:55:45.562Z,11.77
2022-12-01T20:58:11.719Z,15.30
2022-12-01T21:00:38.060Z,14.13
2022-12-01T21:03:04.249Z,13.75
2022-12-01T21:05:30.434Z,14.95
2022-12-01T21:07:56.698Z,12.70
2022-12-01T21:10:22.988Z,14.70
2022-12-01T21:12:49.170Z,15.27
2022-12-01T21:15:15.308Z,15.00
2022-12-01T21:17:41.539Z,18.42
2022-12-01T21:20:07.760Z,15.25
2022-12-01T21:22:34.046Z,11.85
2022-12-01T21:25:00.305Z,14.65
2022-12-01T21:27:26.523Z,13.93
2022-12-01T21:29:52.697Z,13.57
2022-12-01T21:32:18.858Z,13.75
2022-12-01T21:34:45.025Z,14.40
2022-12-01T21:37:11.138Z,15.43
2022-12-01T21:39:37.285Z,16.35
2022-12-01T21:42:03.472Z,14.55
2022-12-01T21:44:29.609Z,13.95
2022-12-01T21:46:55.829Z,14.73
2022-12-01T21:49:22.006Z,15.75
2022-12-01T21:51:48.220Z,15.57
2022-12-01T21:54:14.387Z,13.55
2022-12-01T21:56:40.566Z,16.63
2022-12-01T21:59:06.736Z,14.98
2022-12-01T22:01:33.011Z,15.57
2022-12-01T22:04:02.455Z,16.23
2022-12-01T22:06:30.355Z,14.45
2022-12-01T22:08:58.070Z,15.80
2022-12-01T22:11:24.277Z,15.55
2022-12-01T22:13:50.416Z,14.98
2022-12-01T22:16:16.631Z,15.05
2022-12-01T22:18:42.851Z,15.82
2022-12-01T22:21:09.068Z,15.60
2022-12-01T22:23:35.211Z,16.00
2022-12-01T22:26:01.365Z,13.50
2022-12-01T22:28:27.710Z,15.43
2022-12-01T22:30:53.955Z,15.40
2022-12-01T22:33:20.150Z,12.77
2022-12-01T22:35:46.302Z,15.25
2022-12-01T22:38:12.443Z,15.82
2022-12-01T22:40:38.593Z,14.82
2022-12-01T22:43:07.477Z,13.57
2022-12-01T22:45:37.229Z,15.50
2022-12-01T22:48:03.401Z,14.93
2022-12-01T22:50:29.517Z,16.23
2022-12-01T22:52:55.849Z,14.98
2022-12-01T22:55:21.991Z,18.73
2022-12-01T22:57:48.215Z,15.40
2022-12-01T23:00:14.390Z,16.00
2022-12-01T23:02:40.639Z,14.90
2022-12-01T23:05:06.798Z,14.55
2022-12-01T23:07:33.018Z,15.57
2022-12-01T23:09:59.246Z,17.23
2022-12-01T23:12:25.389Z,16.55
2022-12-01T23:14:51.808Z,15.68
2022-12-01T23:17:18.157Z,16.50
2022-12-01T23:19:44.318Z,14.60
2022-12-01T23:22:10.506Z,15.52
2022-12-01T23:24:36.639Z,14.95
2022-12-01T23:27:02.825Z,16.83
2022-12-01T23:29:29.120Z,16.27
2022-12-01T23:31:55.361Z,15.18
2022-12-01T23:34:21.621Z,14.10
2022-12-01T23:36:47.802Z,16.63
2022-12-01T23:39:14.006Z,13.82
2022-12-01T23:41:40.175Z,15.90
2022-12-01T23:44:06.352Z,14.68
2022-12-01T23:46:32.660Z,16.00
2022-12-01T23:48:58.860Z,15.90
2022-12-01T23:51:24.998Z,16.23
2022-12-01T23:53:51.172Z,15.82
2022-12-01T23:56:17.303Z,15.05
2022-12-01T23:58:43.425Z,16.65
